Hastings, North Dakota
Current Conditions -  °F | °C
As of 4:15 PM on Thursday 23 Oct 2014 (Local Time) from KBAC Reporting Station
Clear Clear  
Wind Chill: 72°   Ceiling: Unl
Heat Index: 72°   Visibility: 10mi
Dew Point: 36°   Wind: 14mph
Humidity: 27%   Direction: 250°WSW
Pressure: 29.82"   Gusts: 17mph
Location:  46.7176°N, 97.9974°W
Report Text: KBAC 232115Z AUTO 25012G15KT 10SM CLR 22/02 A2982 RMK AO2
Loading
Personal Weather Stations






























Interactive Weather Map
Tropical Storm Tracking
New forecast layout! Learn more

10-Day Weather Forecast

Advertisements
Track Severe Weather on mobile